createdAt,value
2018-06-14T00:00:03.738Z,0.97
2018-06-14T00:02:30.940Z,0.87
2018-06-14T00:04:58.116Z,1.07
2018-06-14T00:07:25.295Z,0.90
2018-06-14T00:09:52.488Z,1.07
2018-06-14T00:12:19.722Z,1.20
2018-06-14T00:14:46.889Z,1.00
2018-06-14T00:17:14.056Z,0.87
2018-06-14T00:19:41.324Z,1.20
2018-06-14T00:22:08.524Z,1.00
2018-06-14T00:24:36.036Z,1.03
2018-06-14T00:27:03.304Z,0.83
2018-06-14T00:29:30.476Z,1.30
2018-06-14T00:31:57.912Z,0.80
2018-06-14T00:34:25.107Z,1.20
2018-06-14T00:36:52.293Z,1.40
2018-06-14T00:39:19.500Z,1.00
2018-06-14T00:41:46.669Z,0.83
2018-06-14T00:44:13.840Z,0.87
2018-06-14T00:46:41.003Z,0.87
2018-06-14T00:49:08.182Z,1.17
2018-06-14T00:51:35.416Z,1.00
2018-06-14T00:54:02.602Z,1.20
2018-06-14T00:56:30.963Z,0.80
2018-06-14T00:58:58.164Z,1.27
2018-06-14T01:01:25.339Z,0.90
2018-06-14T01:03:52.505Z,1.10
2018-06-14T01:06:19.698Z,1.03
2018-06-14T01:08:46.992Z,0.93
2018-06-14T01:11:14.129Z,1.00
2018-06-14T01:13:41.294Z,0.97
2018-06-14T01:16:08.532Z,0.90
2018-06-14T01:18:35.713Z,0.93
2018-06-14T01:21:02.860Z,0.87
2018-06-14T01:23:30.052Z,1.20
2018-06-14T01:25:57.208Z,1.00
2018-06-14T01:28:24.403Z,1.00
2018-06-14T01:30:51.622Z,1.10
2018-06-14T01:33:18.805Z,1.00
2018-06-14T01:35:45.964Z,0.93
2018-06-14T01:38:18.721Z,1.13
2018-06-14T01:40:45.898Z,1.30
2018-06-14T01:43:13.077Z,1.37
2018-06-14T01:45:40.256Z,0.87
2018-06-14T01:48:07.437Z,1.10
2018-06-14T01:50:34.620Z,1.00
2018-06-14T01:53:01.826Z,1.00
2018-06-14T01:55:29.706Z,1.40
2018-06-14T01:57:56.925Z,1.10
2018-06-14T02:00:24.080Z,1.30
2018-06-14T02:02:51.239Z,1.03
2018-06-14T02:05:18.418Z,0.90
2018-06-14T02:07:45.574Z,1.20
2018-06-14T02:10:12.725Z,1.20
2018-06-14T02:12:40.032Z,1.10
2018-06-14T02:15:07.219Z,0.97
2018-06-14T02:17:34.395Z,1.17
2018-06-14T02:20:01.568Z,1.13
2018-06-14T02:22:28.762Z,1.00
2018-06-14T02:24:55.927Z,1.10
2018-06-14T02:27:23.136Z,1.00
2018-06-14T02:29:50.308Z,1.03
2018-06-14T02:32:17.459Z,1.20
2018-06-14T02:34:44.692Z,1.20
2018-06-14T02:37:11.856Z,1.30
2018-06-14T02:39:39.024Z,0.90
2018-06-14T02:42:06.207Z,1.30
2018-06-14T02:44:33.406Z,1.17
2018-06-14T02:47:00.575Z,1.10
2018-06-14T02:49:27.815Z,1.23
2018-06-14T02:51:54.992Z,1.20
2018-06-14T02:54:22.270Z,1.40
2018-06-14T02:56:49.464Z,1.30
2018-06-14T02:59:16.636Z,1.10
2018-06-14T03:01:43.960Z,1.17
2018-06-14T03:04:11.112Z,0.80
2018-06-14T03:06:38.306Z,1.00
2018-06-14T03:09:07.410Z,1.20
2018-06-14T03:11:34.574Z,1.20
2018-06-14T03:14:01.874Z,1.00
2018-06-14T03:16:29.068Z,1.37
2018-06-14T03:18:56.344Z,0.93
2018-06-14T03:21:23.536Z,1.07
2018-06-14T03:23:50.690Z,1.30
2018-06-14T03:26:17.864Z,1.10
2018-06-14T03:28:45.149Z,1.13
2018-06-14T03:31:12.334Z,0.83
2018-06-14T03:33:39.652Z,1.00
2018-06-14T03:36:06.929Z,1.23
2018-06-14T03:38:34.177Z,1.00
2018-06-14T03:41:01.436Z,0.90
2018-06-14T03:43:28.627Z,1.03
2018-06-14T03:45:55.935Z,1.07
2018-06-14T03:48:23.117Z,1.13
2018-06-14T03:50:50.538Z,1.10
2018-06-14T03:53:17.709Z,1.10
2018-06-14T03:55:44.915Z,1.37
2018-06-14T03:58:12.619Z,1.00
2018-06-14T04:00:39.821Z,1.20
2018-06-14T04:03:07.107Z,1.10
2018-06-14T04:05:34.559Z,1.20
2018-06-14T04:08:01.725Z,1.17
2018-06-14T04:10:28.940Z,1.23
2018-06-14T04:12:56.095Z,1.20
2018-06-14T04:15:23.279Z,1.20
2018-06-14T04:17:54.935Z,1.10
2018-06-14T04:20:22.179Z,1.10
2018-06-14T04:22:49.397Z,1.20
2018-06-14T04:25:16.645Z,1.00
2018-06-14T04:27:43.815Z,1.20
2018-06-14T04:30:11.001Z,1.23
2018-06-14T04:32:38.189Z,1.00
2018-06-14T04:35:05.365Z,1.10
2018-06-14T04:37:32.527Z,1.07
2018-06-14T04:39:59.693Z,1.10
2018-06-14T04:42:26.871Z,1.50
2018-06-14T04:44:54.285Z,1.40
2018-06-14T04:47:21.480Z,1.10
2018-06-14T04:49:48.755Z,1.43
2018-06-14T04:52:16.008Z,1.30
2018-06-14T04:54:47.543Z,1.10
2018-06-14T04:57:15.018Z,1.00
2018-06-14T04:59:42.192Z,1.00
2018-06-14T05:02:09.397Z,1.27
2018-06-14T05:04:36.588Z,1.37
2018-06-14T05:07:03.837Z,1.37
2018-06-14T05:09:31.013Z,1.40
2018-06-14T05:11:58.186Z,1.53
2018-06-14T05:14:25.520Z,1.10
2018-06-14T05:16:52.679Z,1.17
2018-06-14T05:19:19.925Z,1.03
2018-06-14T05:21:47.642Z,1.23
2018-06-14T05:24:14.824Z,1.60
2018-06-14T05:26:42.002Z,1.80
2018-06-14T05:29:09.170Z,1.50
2018-06-14T05:31:36.432Z,1.80
2018-06-14T05:34:03.605Z,2.10
2018-06-14T05:36:30.772Z,1.90
2018-06-14T05:38:57.926Z,1.97
2018-06-14T05:41:25.110Z,1.90
2018-06-14T05:43:52.296Z,1.80
2018-06-14T05:46:19.478Z,1.80
2018-06-14T05:48:46.810Z,1.80
2018-06-14T05:51:14.040Z,2.00
2018-06-14T05:53:41.216Z,2.37
2018-06-14T05:56:08.392Z,2.00
2018-06-14T05:58:35.566Z,1.57
2018-06-14T06:01:02.738Z,2.20
2018-06-14T06:03:29.910Z,1.97
2018-06-14T06:05:57.116Z,2.03
2018-06-14T06:08:24.396Z,1.73
2018-06-14T06:10:51.567Z,1.90
2018-06-14T06:13:18.748Z,1.87
2018-06-14T06:15:45.910Z,1.50
2018-06-14T06:18:13.099Z,1.83
2018-06-14T06:20:40.273Z,1.97
2018-06-14T06:23:07.501Z,1.70
2018-06-14T06:25:34.767Z,1.90
2018-06-14T06:28:02.051Z,1.73
2018-06-14T06:30:29.231Z,2.00
2018-06-14T06:32:56.396Z,1.90
2018-06-14T06:35:23.556Z,1.60
2018-06-14T06:37:50.806Z,1.70
2018-06-14T06:40:18.070Z,2.20
2018-06-14T06:42:45.304Z,2.00
2018-06-14T06:45:12.498Z,1.67
2018-06-14T06:47:39.670Z,2.07
2018-06-14T06:50:08.088Z,1.67
2018-06-14T06:52:35.358Z,1.57
2018-06-14T06:55:02.528Z,1.60
2018-06-14T06:57:29.736Z,1.70
2018-06-14T06:59:57.124Z,1.70
2018-06-14T07:02:24.278Z,1.60
2018-06-14T07:04:51.436Z,1.50
2018-06-14T07:07:18.683Z,1.80
2018-06-14T07:09:45.886Z,1.83
2018-06-14T07:12:13.064Z,1.60
2018-06-14T07:14:40.426Z,1.70
2018-06-14T07:17:07.598Z,1.50
2018-06-14T07:19:34.774Z,1.83
2018-06-14T07:22:01.981Z,1.60
2018-06-14T07:24:29.252Z,1.47
2018-06-14T07:26:56.446Z,1.70
2018-06-14T07:29:23.602Z,2.00
2018-06-14T07:31:50.763Z,1.60
2018-06-14T07:34:18.001Z,1.73
2018-06-14T07:36:45.180Z,1.97
2018-06-14T07:39:12.939Z,2.03
2018-06-14T07:41:40.116Z,1.60
2018-06-14T07:44:07.538Z,1.70
2018-06-14T07:46:34.988Z,1.50
2018-06-14T07:49:02.628Z,1.97
2018-06-14T07:51:29.878Z,1.43
2018-06-14T07:53:57.156Z,1.37
2018-06-14T07:56:24.406Z,1.47
2018-06-14T07:58:51.587Z,1.00
2018-06-14T08:02:49.267Z,1.00
2018-06-14T08:05:16.508Z,1.00
2018-06-14T08:07:43.703Z,1.13
2018-06-14T08:10:10.971Z,1.20
2018-06-14T08:12:38.125Z,0.90
2018-06-14T08:15:05.506Z,0.93
2018-06-14T08:17:32.749Z,1.10
2018-06-14T08:19:59.945Z,1.00
2018-06-14T08:22:27.160Z,1.20
2018-06-14T08:24:54.370Z,1.03
2018-06-14T08:27:21.563Z,0.90
2018-06-14T08:29:48.744Z,0.90
2018-06-14T08:32:15.940Z,1.07
2018-06-14T08:34:43.114Z,0.90
2018-06-14T08:37:10.316Z,1.00
2018-06-14T08:39:37.598Z,0.97
2018-06-14T08:42:04.857Z,1.00
2018-06-14T08:44:32.094Z,1.00
2018-06-14T08:46:59.355Z,1.10
2018-06-14T08:49:26.547Z,1.20
2018-06-14T08:51:53.852Z,1.03
2018-06-14T08:54:21.087Z,0.83
2018-06-14T08:56:48.469Z,1.55
2018-06-14T08:59:15.654Z,1.10
2018-06-14T09:01:42.852Z,1.20
2018-06-14T09:04:10.146Z,2.90
2018-06-14T09:06:37.326Z,3.40
2018-06-14T09:09:06.479Z,2.77
2018-06-14T09:11:33.933Z,3.50
2018-06-14T09:14:01.117Z,3.40
2018-06-14T09:16:28.313Z,3.90
2018-06-14T09:18:55.507Z,3.50
2018-06-14T09:21:22.671Z,3.20
2018-06-14T09:23:49.863Z,2.97
2018-06-14T09:26:17.049Z,2.73
2018-06-14T09:28:44.245Z,2.00
2018-06-14T09:31:11.525Z,2.20
2018-06-14T09:33:38.696Z,2.27
2018-06-14T09:36:06.117Z,2.00
2018-06-14T09:38:33.473Z,2.10
2018-06-14T09:41:00.657Z,2.00
2018-06-14T09:43:27.823Z,1.60
2018-06-14T09:45:55.023Z,1.57
2018-06-14T09:48:22.217Z,1.80
2018-06-14T09:50:49.528Z,1.50
2018-06-14T09:53:16.713Z,1.60
2018-06-14T09:55:43.879Z,1.70
2018-06-14T09:58:11.062Z,1.50
2018-06-14T10:00:38.199Z,1.63
2018-06-14T10:03:05.355Z,1.60
2018-06-14T10:05:32.504Z,1.67
2018-06-14T10:07:59.685Z,1.57
2018-06-14T10:10:26.852Z,1.30
2018-06-14T10:12:54.007Z,1.20
2018-06-14T10:15:21.244Z,1.43
2018-06-14T10:17:48.466Z,1.20
2018-06-14T10:20:15.661Z,1.30
2018-06-14T10:22:42.835Z,1.30
2018-06-14T10:25:10.064Z,1.40
2018-06-14T10:27:37.307Z,1.60
2018-06-14T10:30:04.567Z,1.20
2018-06-14T10:32:31.791Z,1.43
2018-06-14T10:34:58.987Z,1.30
2018-06-14T10:37:26.155Z,1.33
2018-06-14T10:39:53.357Z,1.33
2018-06-14T10:42:20.545Z,1.27
2018-06-14T10:44:47.733Z,1.30
2018-06-14T10:47:14.924Z,1.10
2018-06-14T10:49:42.133Z,2.63
2018-06-14T10:52:09.347Z,1.17
2018-06-14T10:54:36.572Z,1.30
2018-06-14T10:57:03.775Z,1.70
2018-06-14T10:59:30.967Z,1.40
2018-06-14T11:01:58.149Z,1.50
2018-06-14T11:04:25.337Z,1.20
2018-06-14T11:06:52.513Z,1.30
2018-06-14T11:09:19.711Z,1.33
2018-06-14T11:11:47.223Z,1.10
2018-06-14T11:14:14.412Z,1.17
2018-06-14T11:16:41.607Z,1.23
2018-06-14T11:19:08.939Z,1.70
2018-06-14T11:21:36.140Z,1.20
2018-06-14T11:24:03.495Z,1.57
2018-06-14T11:26:30.683Z,1.40
2018-06-14T11:28:57.875Z,1.23
2018-06-14T11:31:25.097Z,1.40
2018-06-14T11:33:52.723Z,1.57
2018-06-14T11:36:19.929Z,1.50
2018-06-14T11:38:47.271Z,1.37
2018-06-14T11:41:14.843Z,1.83
2018-06-14T11:43:42.030Z,1.40
2018-06-14T11:46:09.210Z,1.20
2018-06-14T11:48:36.700Z,1.20
2018-06-14T11:51:03.902Z,1.43
2018-06-14T11:53:31.073Z,1.20
2018-06-14T11:55:58.261Z,1.40
2018-06-14T11:58:25.433Z,1.50
2018-06-14T12:00:52.611Z,1.40
2018-06-14T12:03:19.917Z,1.40
2018-06-14T12:05:47.121Z,1.30
2018-06-14T12:08:14.310Z,1.27
2018-06-14T12:10:41.484Z,1.17
2018-06-14T12:13:08.704Z,1.17
2018-06-14T12:15:35.903Z,1.30
2018-06-14T12:18:03.082Z,1.40
2018-06-14T12:20:30.290Z,1.40
2018-06-14T12:22:57.490Z,1.40
2018-06-14T12:25:24.766Z,1.40
2018-06-14T12:27:51.956Z,1.37
2018-06-14T12:30:19.154Z,1.40
2018-06-14T12:32:46.317Z,1.40
2018-06-14T12:35:13.507Z,1.60
2018-06-14T12:37:40.746Z,1.30
2018-06-14T12:40:07.898Z,1.53
2018-06-14T12:42:35.113Z,1.53
2018-06-14T12:45:02.317Z,1.50
2018-06-14T12:47:29.486Z,1.40
2018-06-14T12:49:56.682Z,1.40
2018-06-14T12:52:23.926Z,1.20
2018-06-14T12:54:51.135Z,1.40
2018-06-14T12:57:18.336Z,1.60
2018-06-14T12:59:45.514Z,1.50
2018-06-14T13:02:12.724Z,1.67
2018-06-14T13:04:39.976Z,1.73
2018-06-14T13:07:07.171Z,1.40
2018-06-14T13:09:34.360Z,1.47
2018-06-14T13:12:01.538Z,1.60
2018-06-14T13:14:28.723Z,1.30
2018-06-14T13:16:56.052Z,1.70
2018-06-14T13:19:23.285Z,1.70
2018-06-14T13:21:50.518Z,2.20
2018-06-14T13:24:17.771Z,2.37
2018-06-14T13:26:45.046Z,2.50
2018-06-14T13:29:12.597Z,2.13
2018-06-14T13:31:39.781Z,2.20
2018-06-14T13:34:06.996Z,1.87
2018-06-14T13:36:34.534Z,2.20
2018-06-14T13:39:01.749Z,1.80
2018-06-14T13:41:28.955Z,1.73
2018-06-14T13:43:56.365Z,2.00
2018-06-14T13:46:23.625Z,2.03
2018-06-14T13:48:51.052Z,1.97
2018-06-14T13:51:18.125Z,1.73
2018-06-14T13:53:45.328Z,1.97
2018-06-14T13:56:12.531Z,1.60
2018-06-14T13:58:39.708Z,2.13
2018-06-14T14:01:07.065Z,2.47
2018-06-14T14:03:34.246Z,2.00
2018-06-14T14:06:01.453Z,1.77
2018-06-14T14:08:28.733Z,1.70
2018-06-14T14:10:56.009Z,2.23
2018-06-14T14:13:23.243Z,2.17
2018-06-14T14:15:50.492Z,2.10
2018-06-14T14:18:17.768Z,1.53
2018-06-14T14:20:45.003Z,1.80
2018-06-14T14:23:12.207Z,1.50
2018-06-14T14:25:39.688Z,1.37
2018-06-14T14:28:06.949Z,1.37
2018-06-14T14:30:34.139Z,1.30
2018-06-14T14:33:01.449Z,1.17
2018-06-14T14:35:28.649Z,1.37
2018-06-14T14:37:55.809Z,1.80
2018-06-14T14:40:23.045Z,1.40
2018-06-14T14:42:50.234Z,1.30
2018-06-14T14:45:17.438Z,1.30
2018-06-14T14:47:44.768Z,1.27
2018-06-14T14:50:11.995Z,1.60
2018-06-14T14:52:39.206Z,1.50
2018-06-14T14:55:06.399Z,1.40
2018-06-14T14:57:33.595Z,1.47
2018-06-14T15:00:00.819Z,1.50
2018-06-14T15:02:28.008Z,1.40
2018-06-14T15:04:55.203Z,1.20
2018-06-14T15:07:22.395Z,1.30
2018-06-14T15:09:49.595Z,1.10
2018-06-14T15:12:16.789Z,1.30
2018-06-14T15:14:43.971Z,1.57
2018-06-14T15:17:11.181Z,1.50
2018-06-14T15:19:38.357Z,1.50
2018-06-14T15:22:05.530Z,1.20
2018-06-14T15:24:32.742Z,1.83
2018-06-14T15:26:59.940Z,1.30
2018-06-14T15:29:27.149Z,1.33
2018-06-14T15:31:54.343Z,1.50
2018-06-14T15:34:21.545Z,1.60
2018-06-14T15:36:48.773Z,1.33
2018-06-14T15:39:16.123Z,1.70
2018-06-14T15:41:43.473Z,1.30
2018-06-14T15:44:10.758Z,1.70
2018-06-14T15:46:37.939Z,1.53
2018-06-14T15:49:05.167Z,1.90
2018-06-14T15:51:32.374Z,1.63
2018-06-14T15:53:59.577Z,1.80
2018-06-14T15:56:35.413Z,1.73
2018-06-14T15:59:03.428Z,1.70
2018-06-14T16:01:30.612Z,1.90
2018-06-14T16:03:57.782Z,1.97
2018-06-14T16:06:25.025Z,1.90
2018-06-14T16:08:52.287Z,2.07
2018-06-14T16:11:19.499Z,2.20
2018-06-14T16:13:46.709Z,2.00
2018-06-14T16:16:13.929Z,2.03
2018-06-14T16:18:41.171Z,2.20
2018-06-14T16:21:08.361Z,3.63
2018-06-14T16:23:35.575Z,2.17
2018-06-14T16:26:02.912Z,2.47
2018-06-14T16:28:30.113Z,2.17
2018-06-14T16:30:57.529Z,2.07
2018-06-14T16:33:24.809Z,2.10
2018-06-14T16:35:52.011Z,1.90
2018-06-14T16:38:19.215Z,2.63
2018-06-14T16:40:46.444Z,2.17
2018-06-14T16:43:13.635Z,1.83
2018-06-14T16:45:40.978Z,2.03
2018-06-14T16:48:08.112Z,1.87
2018-06-14T16:50:35.379Z,2.07
2018-06-14T16:53:02.676Z,1.50
2018-06-14T16:55:30.056Z,1.70
2018-06-14T16:57:57.445Z,1.60
2018-06-14T17:00:24.615Z,1.67
2018-06-14T17:02:51.802Z,1.67
2018-06-14T17:05:19.164Z,1.70
2018-06-14T17:07:46.306Z,1.70
2018-06-14T17:10:13.498Z,1.70
2018-06-14T17:12:40.667Z,1.60
2018-06-14T17:15:07.859Z,1.67
2018-06-14T17:17:35.059Z,1.40
2018-06-14T17:20:02.259Z,1.77
2018-06-14T17:22:29.448Z,1.63
2018-06-14T17:24:56.649Z,1.73
2018-06-14T17:27:23.887Z,1.60
2018-06-14T17:29:51.158Z,1.70
2018-06-14T17:32:18.415Z,1.73
2018-06-14T17:34:45.611Z,1.83
2018-06-14T17:37:12.788Z,1.50
2018-06-14T17:39:39.955Z,1.67
2018-06-14T17:42:07.179Z,1.60
2018-06-14T17:44:34.366Z,1.63
2018-06-14T17:47:01.574Z,1.47
2018-06-14T17:49:28.739Z,1.77
2018-06-14T17:51:55.941Z,1.83
2018-06-14T17:54:23.118Z,1.73
2018-06-14T17:56:50.325Z,1.83
2018-06-14T17:59:17.544Z,1.70
2018-06-14T18:01:45.328Z,1.80
2018-06-14T18:04:12.995Z,1.60
2018-06-14T18:06:40.199Z,1.63
2018-06-14T18:09:07.794Z,1.90
2018-06-14T18:11:34.983Z,1.90
2018-06-14T18:14:02.232Z,1.70
2018-06-14T18:16:29.449Z,1.60
2018-06-14T18:18:56.598Z,1.80
2018-06-14T18:21:23.953Z,1.47
2018-06-14T18:23:51.144Z,1.53
2018-06-14T18:26:18.416Z,1.50
2018-06-14T18:28:45.644Z,1.70
2018-06-14T18:31:12.846Z,1.67
2018-06-14T18:33:40.045Z,1.70
2018-06-14T18:36:07.229Z,1.50
2018-06-14T18:38:34.430Z,1.53
2018-06-14T18:41:01.705Z,1.47
2018-06-14T18:43:28.922Z,1.80
2018-06-14T18:45:56.390Z,1.60
2018-06-14T18:48:23.640Z,1.70
2018-06-14T18:50:50.887Z,1.77
2018-06-14T18:53:18.063Z,1.63
2018-06-14T18:55:45.261Z,1.83
2018-06-14T18:58:12.457Z,1.53
2018-06-14T19:00:39.713Z,1.50
2018-06-14T19:03:07.469Z,1.60
2018-06-14T19:05:35.115Z,1.43
2018-06-14T19:08:02.801Z,1.47
2018-06-14T19:10:30.436Z,1.67
2018-06-14T19:12:58.100Z,1.50
2018-06-14T19:15:25.977Z,1.57
2018-06-14T19:17:53.646Z,1.50
2018-06-14T19:20:21.281Z,1.97
2018-06-14T19:22:48.926Z,1.50
2018-06-14T19:25:16.617Z,1.70
2018-06-14T19:27:44.454Z,1.67
2018-06-14T19:30:11.920Z,1.70
2018-06-14T19:32:39.561Z,1.50
2018-06-14T19:35:07.265Z,1.60
2018-06-14T19:37:34.627Z,1.47
2018-06-14T19:40:02.163Z,1.80
2018-06-14T19:42:29.724Z,1.53
2018-06-14T19:44:57.090Z,1.60
2018-06-14T19:47:24.289Z,1.70
2018-06-14T19:49:51.504Z,1.73
2018-06-14T19:52:18.704Z,1.80
2018-06-14T19:54:46.046Z,1.43
2018-06-14T19:57:13.546Z,1.73
2018-06-14T19:59:40.766Z,1.50
2018-06-14T20:02:07.949Z,1.80
2018-06-14T20:04:35.175Z,1.33
2018-06-14T20:07:02.971Z,1.70
2018-06-14T20:09:30.603Z,1.43
2018-06-14T20:11:58.041Z,1.60
2018-06-14T20:14:25.413Z,1.60
2018-06-14T20:16:52.736Z,1.33
2018-06-14T20:19:20.466Z,1.47
2018-06-14T20:21:47.865Z,1.50
2018-06-14T20:24:15.280Z,1.57
2018-06-14T20:26:42.683Z,1.60
2018-06-14T20:29:10.047Z,1.47
2018-06-14T20:31:37.253Z,1.70
2018-06-14T20:34:04.606Z,1.60
2018-06-14T20:36:31.997Z,1.60
2018-06-14T20:38:59.945Z,1.63
2018-06-14T20:41:27.183Z,1.87
2018-06-14T20:43:54.378Z,1.60
2018-06-14T20:46:21.596Z,1.40
2018-06-14T20:48:52.637Z,1.60
2018-06-14T20:51:19.829Z,1.70
2018-06-14T20:53:46.998Z,1.63
2018-06-14T20:56:14.349Z,1.60
2018-06-14T20:58:41.545Z,1.53
2018-06-14T21:01:08.736Z,1.90
2018-06-14T21:03:35.936Z,1.70
2018-06-14T21:06:03.150Z,1.83
2018-06-14T21:08:30.318Z,1.50
2018-06-14T21:10:57.503Z,1.90
2018-06-14T21:13:24.686Z,1.60
2018-06-14T21:15:51.884Z,1.80
2018-06-14T21:18:19.118Z,1.50
2018-06-14T21:20:46.353Z,1.80
2018-06-14T21:23:13.568Z,1.70
2018-06-14T21:25:40.754Z,1.77
2018-06-14T21:28:07.953Z,1.83
2018-06-14T21:30:35.118Z,1.70
2018-06-14T21:33:02.405Z,1.80
2018-06-14T21:35:29.584Z,1.30
2018-06-14T21:37:56.782Z,1.60
2018-06-14T21:40:23.955Z,1.57
2018-06-14T21:42:51.125Z,1.70
2018-06-14T21:45:18.461Z,1.80
2018-06-14T21:47:45.627Z,1.60
2018-06-14T21:50:12.953Z,1.50
2018-06-14T21:52:40.172Z,1.50
2018-06-14T21:55:07.446Z,1.70
2018-06-14T21:57:34.723Z,1.57
2018-06-14T22:00:01.980Z,2.00
2018-06-14T22:02:29.227Z,1.80
2018-06-14T22:04:56.419Z,1.67
2018-06-14T22:07:23.608Z,1.60
2018-06-14T22:09:50.907Z,1.60
2018-06-14T22:12:18.065Z,1.50
2018-06-14T22:14:45.235Z,1.63
2018-06-14T22:17:12.418Z,1.70
2018-06-14T22:19:39.786Z,1.90
2018-06-14T22:22:06.965Z,1.57
2018-06-14T22:24:34.279Z,1.63
2018-06-14T22:27:01.459Z,1.57
2018-06-14T22:29:28.943Z,1.60
2018-06-14T22:31:56.315Z,1.60
2018-06-14T22:34:29.021Z,1.60
2018-06-14T22:36:56.289Z,1.50
2018-06-14T22:39:23.469Z,1.70
2018-06-14T22:41:50.649Z,1.50
2018-06-14T22:44:17.957Z,1.33
2018-06-14T22:46:45.067Z,1.60
2018-06-14T22:49:12.257Z,1.33
2018-06-14T22:51:49.058Z,1.63
2018-06-14T22:54:16.245Z,1.57
2018-06-14T22:56:43.422Z,1.70
2018-06-14T22:59:10.600Z,1.50
2018-06-14T23:01:41.792Z,1.43
2018-06-14T23:04:10.180Z,1.77
2018-06-14T23:06:37.426Z,1.40
2018-06-14T23:09:12.130Z,1.50
2018-06-14T23:11:39.304Z,1.70
2018-06-14T23:14:06.570Z,1.50
2018-06-14T23:16:33.778Z,1.70
2018-06-14T23:19:01.014Z,1.60
2018-06-14T23:21:28.192Z,1.43
2018-06-14T23:23:55.376Z,1.70
2018-06-14T23:26:22.548Z,1.33
2018-06-14T23:28:49.762Z,1.40
2018-06-14T23:31:16.956Z,1.90
2018-06-14T23:33:44.148Z,1.30
2018-06-14T23:36:11.412Z,1.80
2018-06-14T23:38:38.580Z,1.50
2018-06-14T23:41:05.754Z,1.30
2018-06-14T23:43:32.983Z,1.50
2018-06-14T23:46:00.186Z,1.70
2018-06-14T23:48:27.356Z,1.43
2018-06-14T23:50:54.527Z,1.63
2018-06-14T23:53:21.694Z,1.67
2018-06-14T23:55:48.864Z,1.40
2018-06-14T23:58:16.107Z,1.30
